createdAt,value
2018-09-30T00:00:56.232Z,5.16
2018-09-30T00:01:56.400Z,5.12
2018-09-30T00:02:56.163Z,5.14
2018-09-30T00:03:56.332Z,5.14
2018-09-30T00:04:56.256Z,5.13
2018-09-30T00:05:56.272Z,5.14
2018-09-30T00:06:56.155Z,5.16
2018-09-30T00:07:56.229Z,5.16
2018-09-30T00:08:56.206Z,5.15
2018-09-30T00:09:56.245Z,5.13
2018-09-30T00:10:56.242Z,5.13
2018-09-30T00:11:56.677Z,5.13
2018-09-30T00:12:56.129Z,5.15
2018-09-30T00:13:56.193Z,5.14
2018-09-30T00:14:56.163Z,5.15
2018-09-30T00:16:56.241Z,5.14
2018-09-30T00:17:56.226Z,5.15
2018-09-30T00:18:56.157Z,5.13
2018-09-30T00:19:56.179Z,5.15
2018-09-30T00:20:56.249Z,5.12
2018-09-30T00:21:56.266Z,5.15
2018-09-30T00:22:56.155Z,5.13
2018-09-30T00:23:56.213Z,5.17
2018-09-30T00:24:56.512Z,5.15
2018-09-30T00:25:56.227Z,5.17
2018-09-30T00:26:56.215Z,5.15
2018-09-30T00:27:56.149Z,5.17
2018-09-30T00:28:56.195Z,5.16
2018-09-30T00:29:56.504Z,5.16
2018-09-30T00:30:56.290Z,5.17
2018-09-30T00:31:56.135Z,5.2
2018-09-30T00:32:56.152Z,5.17
2018-09-30T00:33:56.232Z,5.17
2018-09-30T00:34:56.135Z,5.2
2018-09-30T00:35:56.187Z,5.17
2018-09-30T00:36:56.123Z,5.18
2018-09-30T00:37:56.458Z,5.16
2018-09-30T00:38:56.277Z,5.16
2018-09-30T00:39:56.243Z,5.16
2018-09-30T00:40:56.209Z,5.2
2018-09-30T00:41:56.099Z,5.15
2018-09-30T00:42:56.467Z,5.17
2018-09-30T00:43:56.105Z,5.16
2018-09-30T00:44:56.141Z,5.15
2018-09-30T00:45:56.214Z,5.17
2018-09-30T00:46:56.132Z,5.15
2018-09-30T00:47:56.248Z,5.19
2018-09-30T00:48:56.155Z,5.2
2018-09-30T00:49:56.511Z,5.17
2018-09-30T00:50:56.489Z,5.19
2018-09-30T00:51:56.174Z,5.15
2018-09-30T00:52:56.123Z,5.19
2018-09-30T00:53:56.210Z,5.2
2018-09-30T00:54:56.450Z,5.17
2018-09-30T00:55:56.157Z,5.2
2018-09-30T00:56:56.163Z,5.18
2018-09-30T00:57:56.293Z,5.24
2018-09-30T00:58:56.109Z,5.19
2018-09-30T00:59:56.092Z,5.23
2018-09-30T01:00:56.130Z,5.19
2018-09-30T01:01:56.166Z,5.18
2018-09-30T01:02:56.115Z,5.19
2018-09-30T01:03:56.144Z,5.21
2018-09-30T01:04:56.078Z,5.18
2018-09-30T01:05:56.099Z,5.2
2018-09-30T01:06:56.074Z,5.18
2018-09-30T01:07:56.105Z,5.21
2018-09-30T01:08:56.063Z,5.18
2018-09-30T01:09:56.140Z,5.22
2018-09-30T01:10:56.130Z,5.19
2018-09-30T01:11:56.111Z,5.22
2018-09-30T01:12:56.067Z,5.19
2018-09-30T01:13:56.093Z,5.22
2018-09-30T01:14:56.064Z,5.21
2018-09-30T01:15:56.087Z,5.21
2018-09-30T01:16:56.130Z,5.19
2018-09-30T01:17:56.083Z,5.18
2018-09-30T01:18:56.101Z,5.22
2018-09-30T01:19:56.069Z,5.23
2018-09-30T01:20:57.564Z,5.21
2018-09-30T01:21:56.071Z,5.22
2018-09-30T01:22:56.039Z,5.23
2018-09-30T01:23:56.098Z,5.2
2018-09-30T01:24:56.132Z,5.22
2018-09-30T01:25:56.066Z,5.19
2018-09-30T01:26:56.099Z,5.2
2018-09-30T01:27:56.306Z,5.2
2018-09-30T01:28:56.086Z,5.21
2018-09-30T01:29:56.093Z,5.23
2018-09-30T01:30:56.299Z,5.22
2018-09-30T01:31:56.206Z,5.2
2018-09-30T01:32:56.059Z,5.2
2018-09-30T01:33:56.070Z,5.25
2018-09-30T01:34:56.091Z,5.21
2018-09-30T01:35:56.089Z,5.25
2018-09-30T01:36:56.130Z,5.25
2018-09-30T01:37:56.168Z,5.24
2018-09-30T01:38:56.043Z,5.24
2018-09-30T01:39:56.126Z,5.2
2018-09-30T01:40:56.313Z,5.2
2018-09-30T01:41:56.214Z,5.21
2018-09-30T01:42:56.108Z,5.23
2018-09-30T01:43:56.079Z,5.22
2018-09-30T01:44:56.187Z,5.23
2018-09-30T01:45:56.049Z,5.24
2018-09-30T01:46:56.288Z,5.22
2018-09-30T01:47:56.009Z,5.2
2018-09-30T01:48:56.159Z,5.21
2018-09-30T01:49:56.107Z,5.19
2018-09-30T01:50:56.060Z,5.19
2018-09-30T01:51:56.149Z,5.18
2018-09-30T01:52:56.039Z,5.21
2018-09-30T01:53:56.098Z,5.21
2018-09-30T01:54:56.563Z,5.18
2018-09-30T01:55:56.210Z,5.24
2018-09-30T01:56:56.270Z,5.22
2018-09-30T01:57:56.091Z,5.22
2018-09-30T01:58:56.232Z,5.21
2018-09-30T01:59:56.138Z,5.22
2018-09-30T02:00:56.111Z,5.21
2018-09-30T02:01:56.196Z,5.23
2018-09-30T02:02:56.151Z,5.18
2018-09-30T02:03:56.160Z,5.23
2018-09-30T02:04:56.141Z,5.19
2018-09-30T02:05:56.202Z,5.2
2018-09-30T02:06:56.074Z,5.24
2018-09-30T02:07:56.144Z,5.23
2018-09-30T02:08:56.020Z,5.2
2018-09-30T02:09:56.167Z,5.23
2018-09-30T02:10:56.010Z,5.21
2018-09-30T02:11:56.072Z,5.2
2018-09-30T02:12:56.149Z,5.21
2018-09-30T02:13:56.023Z,5.18
2018-09-30T02:14:56.090Z,5.22
2018-09-30T02:15:56.290Z,5.23
2018-09-30T02:16:55.984Z,5.25
2018-09-30T02:17:56.021Z,5.24
2018-09-30T02:18:56.057Z,5.23
2018-09-30T02:19:56.099Z,5.21
2018-09-30T02:20:56.238Z,5.23
2018-09-30T02:21:56.077Z,5.26
2018-09-30T02:22:55.980Z,5.21
2018-09-30T02:23:56.063Z,5.23
2018-09-30T02:24:56.061Z,5.24
2018-09-30T02:25:56.015Z,5.24
2018-09-30T02:26:56.126Z,5.25
2018-09-30T02:27:56.090Z,5.22
2018-09-30T02:28:56.142Z,5.22
2018-09-30T02:29:55.963Z,5.25
2018-09-30T02:30:56.012Z,5.24
2018-09-30T02:31:56.257Z,5.27
2018-09-30T02:32:55.956Z,5.22
2018-09-30T02:33:56.095Z,5.25
2018-09-30T02:34:55.953Z,5.23
2018-09-30T02:35:56.039Z,5.22
2018-09-30T02:36:56.047Z,5.25
2018-09-30T02:37:56.259Z,5.24
2018-09-30T02:38:56.080Z,5.23
2018-09-30T02:39:55.968Z,5.22
2018-09-30T02:40:55.982Z,5.22
2018-09-30T02:41:55.928Z,5.22
2018-09-30T02:42:56.052Z,5.21
2018-09-30T02:43:56.000Z,5.21
2018-09-30T02:44:56.216Z,5.2
2018-09-30T02:45:55.967Z,5.21
2018-09-30T02:46:55.946Z,5.23
2018-09-30T02:47:55.991Z,5.21
2018-09-30T02:48:56.100Z,5.2
2018-09-30T02:49:56.070Z,5.21
2018-09-30T02:50:56.311Z,5.2
2018-09-30T02:51:56.409Z,5.2
2018-09-30T02:52:56.198Z,5.22
2018-09-30T02:53:55.944Z,5.2
2018-09-30T02:54:56.002Z,5.22
2018-09-30T02:55:56.163Z,5.24
2018-09-30T02:56:55.943Z,5.19
2018-09-30T02:57:56.093Z,5.2
2018-09-30T02:58:55.930Z,5.23
2018-09-30T02:59:56.017Z,5.22
2018-09-30T03:00:56.245Z,5.18
2018-09-30T03:01:56.151Z,5.19
2018-09-30T03:02:56.082Z,5.22
2018-09-30T03:03:55.958Z,5.2
2018-09-30T03:04:56.126Z,5.17
2018-09-30T03:05:56.251Z,5.2
2018-09-30T03:06:56.575Z,5.21
2018-09-30T03:07:56.249Z,5.2
2018-09-30T03:08:56.267Z,5.22
2018-09-30T03:09:55.930Z,5.21
2018-09-30T03:10:56.051Z,5.21
2018-09-30T03:11:55.922Z,5.18
2018-09-30T03:12:56.006Z,5.21
2018-09-30T03:13:55.898Z,5.21
2018-09-30T03:14:56.105Z,5.18
2018-09-30T03:15:55.905Z,5.23
2018-09-30T03:16:56.122Z,5.19
2018-09-30T03:17:55.893Z,5.18
2018-09-30T03:18:55.971Z,5.17
2018-09-30T03:19:55.921Z,5.2
2018-09-30T03:20:55.973Z,5.19
2018-09-30T03:21:56.026Z,5.17
2018-09-30T03:22:55.941Z,5.18
2018-09-30T03:23:55.931Z,5.22
2018-09-30T03:24:56.159Z,5.18
2018-09-30T03:25:56.005Z,5.18
2018-09-30T03:26:56.486Z,5.2
2018-09-30T03:27:56.197Z,5.16
2018-09-30T03:28:56.712Z,5.18
2018-09-30T03:29:56.050Z,5.2
2018-09-30T03:30:55.988Z,5.17
2018-09-30T03:31:56.324Z,5.17
2018-09-30T03:32:55.981Z,5.16
2018-09-30T03:33:55.863Z,5.2
2018-09-30T03:34:56.028Z,5.18
2018-09-30T03:35:55.913Z,5.22
2018-09-30T03:36:55.887Z,5.15
2018-09-30T03:37:55.886Z,5.16
2018-09-30T03:38:55.864Z,5.25
2018-09-30T03:39:56.111Z,5.23
2018-09-30T03:40:56.009Z,5.23
2018-09-30T03:41:56.119Z,5.22
2018-09-30T03:42:56.199Z,5.21
2018-09-30T03:43:55.879Z,5.22
2018-09-30T03:44:55.849Z,5.26
2018-09-30T03:45:56.086Z,5.22
2018-09-30T03:46:56.238Z,5.25
2018-09-30T03:47:55.897Z,5.28
2018-09-30T03:48:56.034Z,5.26
2018-09-30T03:49:55.942Z,5.24
2018-09-30T03:50:55.897Z,5.21
2018-09-30T03:51:55.920Z,5.24
2018-09-30T03:52:55.860Z,5.25
2018-09-30T03:53:55.857Z,5.25
2018-09-30T03:54:55.846Z,5.24
2018-09-30T03:55:55.839Z,5.21
2018-09-30T03:56:55.833Z,5.26
2018-09-30T03:57:55.925Z,5.25
2018-09-30T03:58:55.895Z,5.26
2018-09-30T03:59:55.913Z,5.28
2018-09-30T04:00:55.867Z,5.21
2018-09-30T04:01:55.876Z,5.24
2018-09-30T04:02:55.910Z,5.2
2018-09-30T04:03:55.846Z,5.23
2018-09-30T04:04:55.853Z,5.21
2018-09-30T04:05:55.840Z,5.21
2018-09-30T04:06:55.878Z,5.25
2018-09-30T04:07:56.149Z,5.21
2018-09-30T04:08:56.147Z,5.24
2018-09-30T04:09:56.155Z,5.19
2018-09-30T04:10:55.863Z,5.24
2018-09-30T04:11:55.827Z,5.21
2018-09-30T04:12:55.814Z,5.23
2018-09-30T04:13:55.926Z,5.2
2018-09-30T04:14:55.928Z,5.19
2018-09-30T04:15:56.010Z,5.2
2018-09-30T04:16:56.589Z,5.19
2018-09-30T04:17:55.842Z,5.2
2018-09-30T04:18:55.810Z,5.2
2018-09-30T04:19:56.156Z,5.17
2018-09-30T04:20:56.203Z,5.17
2018-09-30T04:21:55.834Z,5.18
2018-09-30T04:22:55.807Z,5.17
2018-09-30T04:23:55.813Z,5.18
2018-09-30T04:24:55.835Z,5.2
2018-09-30T04:25:55.810Z,5.21
2018-09-30T04:26:55.804Z,5.2
2018-09-30T04:27:55.802Z,5.19
2018-09-30T04:28:55.810Z,5.18
2018-09-30T04:29:56.181Z,5.14
2018-09-30T04:30:55.794Z,5.18
2018-09-30T04:31:55.896Z,5.17
2018-09-30T04:32:55.835Z,5.18
2018-09-30T04:33:55.795Z,5.14
2018-09-30T04:34:56.053Z,5.15
2018-09-30T04:35:55.834Z,5.13
2018-09-30T04:36:55.929Z,5.19
2018-09-30T04:37:55.881Z,5.19
2018-09-30T04:38:55.798Z,5.16
2018-09-30T04:39:55.807Z,5.19
2018-09-30T04:40:55.876Z,5.17
2018-09-30T04:41:55.930Z,5.17
2018-09-30T04:42:55.765Z,5.16
2018-09-30T04:43:55.797Z,5.15
2018-09-30T04:44:56.066Z,5.13
2018-09-30T04:45:55.808Z,5.12
2018-09-30T04:46:55.803Z,5.13
2018-09-30T04:47:55.898Z,5.11
2018-09-30T04:48:55.786Z,5.14
2018-09-30T04:49:56.134Z,5.13
2018-09-30T04:50:55.777Z,5.14
2018-09-30T04:51:56.094Z,5.12
2018-09-30T04:52:56.112Z,5.1
2018-09-30T04:53:55.809Z,5.11
2018-09-30T04:54:55.814Z,5.13
2018-09-30T04:55:55.852Z,5.1
2018-09-30T04:56:55.908Z,5.11
2018-09-30T04:57:56.127Z,5.14
2018-09-30T04:58:55.829Z,5.11
2018-09-30T04:59:55.861Z,5.14
2018-09-30T05:00:55.769Z,5.15
2018-09-30T05:01:55.820Z,5.15
2018-09-30T05:02:55.778Z,5.16
2018-09-30T05:03:55.832Z,5.12
2018-09-30T05:04:55.827Z,5.12
2018-09-30T05:05:56.129Z,5.09
2018-09-30T05:06:55.726Z,5.12
2018-09-30T05:07:55.813Z,5.12
2018-09-30T05:08:55.752Z,5.15
2018-09-30T05:09:56.046Z,5.16
2018-09-30T05:10:57.058Z,5.18
2018-09-30T05:11:55.891Z,5.15
2018-09-30T05:12:55.780Z,5.14
2018-09-30T05:13:55.746Z,5.12
2018-09-30T05:14:55.739Z,5.17
2018-09-30T05:15:55.989Z,5.16
2018-09-30T05:16:55.721Z,5.18
2018-09-30T05:17:55.727Z,5.15
2018-09-30T05:18:55.759Z,5.21
2018-09-30T05:19:55.712Z,5.15
2018-09-30T05:20:55.787Z,5.2
2018-09-30T05:21:55.782Z,5.15
2018-09-30T05:22:55.722Z,5.15
2018-09-30T05:23:55.905Z,5.15
2018-09-30T05:24:55.732Z,5.14
2018-09-30T05:25:55.713Z,5.13
2018-09-30T05:26:55.764Z,5.15
2018-09-30T05:27:55.719Z,5.15
2018-09-30T05:28:55.731Z,5.18
2018-09-30T05:29:55.715Z,5.2
2018-09-30T05:30:55.687Z,5.19
2018-09-30T05:31:55.728Z,5.22
2018-09-30T05:32:55.697Z,5.24
2018-09-30T05:33:55.766Z,5.25
2018-09-30T05:34:55.804Z,5.25
2018-09-30T05:35:55.847Z,5.25
2018-09-30T05:36:55.693Z,5.25
2018-09-30T05:37:55.687Z,5.21
2018-09-30T05:38:55.697Z,5.27
2018-09-30T05:39:55.694Z,5.24
2018-09-30T05:40:55.777Z,5.29
2018-09-30T05:41:56.189Z,5.25
2018-09-30T05:42:55.855Z,5.26
2018-09-30T05:43:56.068Z,5.32
2018-09-30T05:44:55.792Z,5.32
2018-09-30T05:45:55.845Z,5.3
2018-09-30T05:46:55.800Z,5.25
2018-09-30T05:47:56.185Z,5.32
2018-09-30T05:48:55.993Z,5.35
2018-09-30T05:49:55.813Z,5.34
2018-09-30T05:50:56.038Z,5.4
2018-09-30T05:51:55.778Z,5.37
2018-09-30T05:52:55.799Z,5.42
2018-09-30T05:53:55.680Z,5.41
2018-09-30T05:54:55.702Z,5.51
2018-09-30T05:55:56.013Z,5.53
2018-09-30T05:56:56.021Z,5.52
2018-09-30T05:57:56.289Z,5.55
2018-09-30T05:58:55.697Z,5.57
2018-09-30T05:59:55.673Z,5.58
2018-09-30T06:00:55.712Z,5.6
2018-09-30T06:01:55.801Z,5.64
2018-09-30T06:02:55.672Z,5.61
2018-09-30T06:03:56.100Z,5.64
2018-09-30T06:04:55.685Z,5.63
2018-09-30T06:05:55.685Z,5.65
2018-09-30T06:06:56.036Z,5.67
2018-09-30T06:07:55.892Z,5.69
2018-09-30T06:08:55.867Z,5.67
2018-09-30T06:09:55.674Z,5.6
2018-09-30T06:10:55.861Z,5.6
2018-09-30T06:11:55.653Z,5.65
2018-09-30T06:12:55.733Z,5.6
2018-09-30T06:13:56.854Z,5.62
2018-09-30T06:14:55.668Z,5.61
2018-09-30T06:15:56.415Z,5.56
2018-09-30T06:16:55.662Z,5.61
2018-09-30T06:17:55.835Z,5.54
2018-09-30T06:18:55.923Z,5.56
2018-09-30T06:19:55.924Z,5.58
2018-09-30T06:20:55.764Z,5.54
2018-09-30T06:21:55.752Z,5.55
2018-09-30T06:22:56.049Z,5.51
2018-09-30T06:23:56.079Z,5.51
2018-09-30T06:24:55.720Z,5.53
2018-09-30T06:25:55.651Z,5.53
2018-09-30T06:26:55.661Z,5.61
2018-09-30T06:27:55.678Z,5.68
2018-09-30T06:28:55.665Z,5.73
2018-09-30T06:29:55.705Z,5.74
2018-09-30T06:30:55.754Z,5.76
2018-09-30T06:31:55.952Z,5.77
2018-09-30T06:32:55.668Z,5.77
2018-09-30T06:33:55.741Z,5.78
2018-09-30T06:34:55.674Z,5.77
2018-09-30T06:35:55.700Z,5.76
2018-09-30T06:36:55.680Z,5.71
2018-09-30T06:37:56.009Z,5.78
2018-09-30T06:38:55.626Z,5.76
2018-09-30T06:39:55.632Z,5.75
2018-09-30T06:40:55.603Z,5.79
2018-09-30T06:41:55.608Z,5.75
2018-09-30T06:42:55.623Z,5.77
2018-09-30T06:43:55.604Z,5.74
2018-09-30T06:44:55.880Z,5.73
2018-09-30T06:45:55.615Z,5.75
2018-09-30T06:46:55.564Z,5.59
2018-09-30T06:47:55.598Z,5.63
2018-09-30T06:48:55.665Z,5.69
2018-09-30T06:49:55.624Z,5.62
2018-09-30T06:50:56.282Z,5.51
2018-09-30T06:51:55.577Z,5.51
2018-09-30T06:52:55.584Z,5.42
2018-09-30T06:53:55.588Z,5.38
2018-09-30T06:54:55.577Z,5.36
2018-09-30T06:55:55.668Z,5.36
2018-09-30T06:56:55.608Z,5.36
2018-09-30T06:57:55.641Z,5.38
2018-09-30T06:58:55.604Z,5.38
2018-09-30T06:59:55.965Z,5.31
2018-09-30T07:00:55.832Z,5.31
2018-09-30T07:01:55.633Z,5.26
2018-09-30T07:02:55.613Z,5.31
2018-09-30T07:03:55.916Z,5.29
2018-09-30T07:04:56.695Z,5.26
2018-09-30T07:05:55.553Z,5.27
2018-09-30T07:06:55.674Z,5.27
2018-09-30T07:07:55.568Z,5.29
2018-09-30T07:08:55.579Z,5.28
2018-09-30T07:09:55.571Z,5.29
2018-09-30T07:10:56.680Z,5.29
2018-09-30T07:11:55.769Z,5.28
2018-09-30T07:12:55.568Z,5.32
2018-09-30T07:13:55.959Z,5.31
2018-09-30T07:14:55.550Z,5.3
2018-09-30T07:15:55.570Z,5.3
2018-09-30T07:16:56.161Z,5.31
2018-09-30T07:17:55.702Z,5.31
2018-09-30T07:18:55.665Z,5.34
2018-09-30T07:19:55.657Z,5.28
2018-09-30T07:20:55.553Z,5.27
2018-09-30T07:21:55.634Z,5.29
2018-09-30T07:22:55.955Z,5.33
2018-09-30T07:23:55.930Z,5.33
2018-09-30T07:24:55.605Z,5.34
2018-09-30T07:25:55.702Z,5.33
2018-09-30T07:26:55.520Z,5.35
2018-09-30T07:27:55.700Z,5.38
2018-09-30T07:28:55.672Z,5.37
2018-09-30T07:29:55.545Z,5.33
2018-09-30T07:30:55.691Z,5.33
2018-09-30T07:31:55.593Z,5.33
2018-09-30T07:32:55.526Z,5.37
2018-09-30T07:33:55.949Z,5.35
2018-09-30T07:34:55.970Z,5.31
2018-09-30T07:35:55.517Z,5.35
2018-09-30T07:36:55.507Z,5.37
2018-09-30T07:37:55.547Z,5.35
2018-09-30T07:38:55.521Z,5.36
2018-09-30T07:39:55.770Z,5.36
2018-09-30T07:40:55.574Z,5.37
2018-09-30T07:41:55.604Z,5.37
2018-09-30T07:42:55.685Z,5.41
2018-09-30T07:43:55.621Z,5.38
2018-09-30T07:44:55.554Z,5.39
2018-09-30T07:45:55.511Z,5.42
2018-09-30T07:46:55.830Z,5.41
2018-09-30T07:47:55.591Z,5.35
2018-09-30T07:48:55.522Z,5.38
2018-09-30T07:49:55.528Z,5.36
2018-09-30T07:50:55.505Z,5.38
2018-09-30T07:51:55.490Z,5.38
2018-09-30T07:52:55.519Z,5.4
2018-09-30T07:53:55.573Z,5.42
2018-09-30T07:54:55.575Z,5.46
2018-09-30T07:55:55.643Z,5.46
2018-09-30T07:56:55.578Z,5.47
2018-09-30T07:57:55.677Z,5.51
2018-09-30T07:58:55.612Z,5.5
2018-09-30T07:59:55.704Z,5.48
2018-09-30T08:00:55.616Z,5.49
2018-09-30T08:01:55.470Z,5.47
2018-09-30T08:02:55.475Z,5.48
2018-09-30T08:03:55.468Z,5.52
2018-09-30T08:04:55.469Z,5.54
2018-09-30T08:05:55.472Z,5.53
2018-09-30T08:06:55.528Z,5.52
2018-09-30T08:07:55.474Z,5.55
2018-09-30T08:08:55.447Z,5.54
2018-09-30T08:09:55.546Z,5.53
2018-09-30T08:10:55.566Z,5.55
2018-09-30T08:11:55.498Z,5.53
2018-09-30T08:12:55.497Z,5.52
2018-09-30T08:13:55.796Z,5.54
2018-09-30T08:14:55.502Z,5.58
2018-09-30T08:15:55.477Z,5.58
2018-09-30T08:16:55.961Z,5.64
2018-09-30T08:17:55.649Z,5.64
2018-09-30T08:18:55.505Z,5.58
2018-09-30T08:19:55.547Z,5.58
2018-09-30T08:20:55.495Z,5.66
2018-09-30T08:21:55.740Z,5.7
2018-09-30T08:22:55.465Z,5.71
2018-09-30T08:23:55.980Z,5.72
2018-09-30T08:24:55.564Z,5.72
2018-09-30T08:25:55.479Z,5.74
2018-09-30T08:26:55.805Z,5.74
2018-09-30T08:27:55.489Z,5.75
2018-09-30T08:28:55.800Z,5.72
2018-09-30T08:29:55.610Z,5.69
2018-09-30T08:30:55.725Z,5.7
2018-09-30T08:31:55.486Z,5.68
2018-09-30T08:32:55.614Z,5.75
2018-09-30T08:33:55.458Z,5.75
2018-09-30T08:34:55.443Z,5.75
2018-09-30T08:35:55.615Z,5.76
2018-09-30T08:36:55.466Z,5.8
2018-09-30T08:37:55.503Z,5.8
2018-09-30T08:38:55.691Z,5.79
2018-09-30T08:39:56.014Z,5.75
2018-09-30T08:40:55.609Z,5.75
2018-09-30T08:41:55.482Z,5.74
2018-09-30T08:42:55.468Z,5.79
2018-09-30T08:43:56.725Z,5.76
2018-09-30T08:44:55.477Z,5.82
2018-09-30T08:45:56.199Z,5.79
2018-09-30T08:46:55.452Z,5.77
2018-09-30T08:47:55.476Z,5.82
2018-09-30T08:48:55.481Z,5.81
2018-09-30T08:49:55.502Z,5.83
2018-09-30T08:50:55.467Z,5.88
2018-09-30T08:51:55.571Z,5.87
2018-09-30T08:52:56.070Z,5.81
2018-09-30T08:53:56.021Z,5.87
2018-09-30T08:54:55.379Z,5.87
2018-09-30T08:55:55.994Z,5.88
2018-09-30T08:56:55.485Z,5.91
2018-09-30T08:57:55.604Z,5.84
2018-09-30T08:58:55.510Z,5.88
2018-09-30T08:59:55.381Z,5.89
2018-09-30T09:00:55.527Z,5.91
2018-09-30T09:01:55.437Z,5.88
2018-09-30T09:02:55.815Z,5.9
2018-09-30T09:03:55.542Z,5.87
2018-09-30T09:04:55.628Z,5.93
2018-09-30T09:05:55.441Z,5.92
2018-09-30T09:06:55.430Z,5.88
2018-09-30T09:07:55.660Z,5.94
2018-09-30T09:08:55.462Z,5.87
2018-09-30T09:09:56.106Z,5.91
2018-09-30T09:10:55.450Z,5.91
2018-09-30T09:11:55.685Z,5.98
2018-09-30T09:12:55.507Z,5.97
2018-09-30T09:13:55.509Z,6.04
2018-09-30T09:14:55.512Z,6.04
2018-09-30T09:15:55.397Z,6.04
2018-09-30T09:16:55.489Z,6.01
2018-09-30T09:17:55.379Z,6
2018-09-30T09:18:55.684Z,6
2018-09-30T09:19:56.180Z,6.01
2018-09-30T09:20:55.483Z,6.09
2018-09-30T09:21:55.378Z,6.08
2018-09-30T09:22:55.916Z,6.02
2018-09-30T09:23:55.362Z,6.06
2018-09-30T09:24:55.354Z,6.11
2018-09-30T09:25:55.356Z,6.07
2018-09-30T09:26:55.666Z,6.08
2018-09-30T09:27:55.641Z,6.11
2018-09-30T09:28:55.475Z,6.11
2018-09-30T09:29:55.352Z,6.14
2018-09-30T09:30:55.357Z,6.1
2018-09-30T09:31:55.406Z,6.08
2018-09-30T09:32:57.123Z,6.07
2018-09-30T09:33:55.357Z,6.09
2018-09-30T09:34:55.808Z,6.09
2018-09-30T09:35:55.379Z,6.13
2018-09-30T09:36:55.332Z,6.05
2018-09-30T09:37:56.661Z,6.09
2018-09-30T09:38:55.363Z,6.11
2018-09-30T09:39:55.565Z,6.15
2018-09-30T09:40:55.697Z,6.16
2018-09-30T09:41:55.570Z,6.2
2018-09-30T09:42:55.408Z,6.11
2018-09-30T09:43:55.411Z,6.12
2018-09-30T09:44:55.355Z,6.18
2018-09-30T09:45:56.307Z,6.17
2018-09-30T09:46:55.669Z,6.27
2018-09-30T09:47:55.308Z,6.26
2018-09-30T09:48:55.378Z,6.23
2018-09-30T09:49:55.435Z,6.25
2018-09-30T09:50:55.318Z,6.22
2018-09-30T09:51:55.428Z,6.16
2018-09-30T09:52:55.684Z,6.22
2018-09-30T09:53:55.583Z,6.27
2018-09-30T09:54:55.355Z,6.15
2018-09-30T09:55:55.416Z,6.07
2018-09-30T09:56:55.380Z,6.23
2018-09-30T09:57:57.376Z,6.25
2018-09-30T09:58:56.004Z,6.28
2018-09-30T09:59:55.351Z,6.27
2018-09-30T10:00:55.699Z,6.28
2018-09-30T10:01:55.312Z,6.21
2018-09-30T10:02:55.336Z,6.3
2018-09-30T10:03:55.548Z,6.29
2018-09-30T10:04:55.483Z,6.32
2018-09-30T10:05:55.312Z,6.18
2018-09-30T10:06:55.710Z,6.2
2018-09-30T10:07:55.497Z,6.23
2018-09-30T10:08:55.417Z,6.22
2018-09-30T10:09:55.333Z,6.35
2018-09-30T10:10:55.338Z,6.27
2018-09-30T10:11:55.790Z,6.26
2018-09-30T10:13:55.734Z,6.22
2018-09-30T10:14:55.467Z,6.29
2018-09-30T10:15:55.263Z,6.32
2018-09-30T10:16:55.548Z,6.24
2018-09-30T10:17:55.401Z,6.25
2018-09-30T10:18:55.462Z,6.28
2018-09-30T10:19:55.324Z,6.28
2018-09-30T10:20:55.480Z,6.39
2018-09-30T10:21:55.504Z,6.39
2018-09-30T10:22:55.322Z,6.38
2018-09-30T10:23:56.656Z,6.39
2018-09-30T10:24:55.348Z,6.36
2018-09-30T10:25:55.366Z,6.47
2018-09-30T10:26:55.383Z,6.39
2018-09-30T10:27:55.588Z,6.43
2018-09-30T10:28:55.406Z,6.46
2018-09-30T10:29:55.446Z,6.45
2018-09-30T10:30:55.504Z,6.41
2018-09-30T10:31:55.331Z,6.46
2018-09-30T10:32:55.732Z,6.51
2018-09-30T10:33:55.315Z,6.46
2018-09-30T10:34:55.447Z,6.55
2018-09-30T10:35:55.444Z,6.46
2018-09-30T10:36:55.312Z,6.5
2018-09-30T10:37:55.460Z,6.53
2018-09-30T10:38:56.205Z,6.61
2018-09-30T10:39:55.321Z,6.58
2018-09-30T10:40:55.309Z,6.51
2018-09-30T10:41:55.258Z,6.54
2018-09-30T10:42:55.416Z,6.44
2018-09-30T10:43:55.322Z,6.44
2018-09-30T10:44:55.245Z,6.44
2018-09-30T10:45:55.372Z,6.51
2018-09-30T10:46:55.338Z,6.51
2018-09-30T10:47:55.238Z,6.55
2018-09-30T10:48:55.248Z,6.55
2018-09-30T10:49:55.233Z,6.51
2018-09-30T10:50:55.226Z,6.56
2018-09-30T10:51:55.546Z,6.58
2018-09-30T10:52:55.244Z,6.64
2018-09-30T10:53:55.286Z,6.71
2018-09-30T10:54:55.330Z,6.61
2018-09-30T10:55:55.213Z,6.56
2018-09-30T10:56:55.872Z,6.55
2018-09-30T10:57:55.222Z,6.54
2018-09-30T10:58:55.231Z,6.53
2018-09-30T10:59:55.297Z,6.51
2018-09-30T11:00:55.239Z,6.53
2018-09-30T11:01:55.241Z,6.63
2018-09-30T11:02:55.250Z,6.65
2018-09-30T11:03:55.226Z,6.58
2018-09-30T11:04:55.201Z,6.49
2018-09-30T11:05:55.220Z,6.55
2018-09-30T11:06:55.280Z,6.59
2018-09-30T11:07:55.284Z,6.63
2018-09-30T11:08:55.270Z,6.65
2018-09-30T11:09:55.660Z,6.68
2018-09-30T11:10:55.512Z,6.66
2018-09-30T11:11:55.309Z,6.62
2018-09-30T11:12:55.340Z,6.62
2018-09-30T11:13:55.238Z,6.64
2018-09-30T11:14:55.375Z,6.65
2018-09-30T11:15:55.716Z,6.65
2018-09-30T11:16:55.373Z,6.74
2018-09-30T11:17:55.228Z,6.74
2018-09-30T11:18:55.296Z,6.77
2018-09-30T11:19:55.229Z,6.77
2018-09-30T11:20:55.307Z,6.76
2018-09-30T11:21:55.937Z,6.79
2018-09-30T11:22:55.364Z,6.81
2018-09-30T11:23:55.338Z,6.87
2018-09-30T11:24:55.492Z,6.91
2018-09-30T11:25:55.255Z,6.92
2018-09-30T11:26:55.626Z,6.89
2018-09-30T11:27:55.268Z,6.92
2018-09-30T11:28:55.646Z,6.94
2018-09-30T11:29:55.289Z,6.97
2018-09-30T11:30:55.308Z,6.93
2018-09-30T11:31:55.820Z,6.98
2018-09-30T11:32:55.442Z,6.95
2018-09-30T11:33:56.980Z,6.96
2018-09-30T11:34:55.175Z,7.02
2018-09-30T11:35:55.549Z,7.01
2018-09-30T11:36:55.294Z,7
2018-09-30T11:37:55.268Z,6.99
2018-09-30T11:38:55.315Z,7.04
2018-09-30T11:39:55.384Z,7.05
2018-09-30T11:40:55.279Z,7.03
2018-09-30T11:41:58.910Z,7.01
2018-09-30T11:42:55.805Z,6.97
2018-09-30T11:43:55.269Z,6.97
2018-09-30T11:44:55.606Z,7.06
2018-09-30T11:45:55.245Z,7.04
2018-09-30T11:46:55.453Z,7.07
2018-09-30T11:47:55.237Z,7.06
2018-09-30T11:48:55.335Z,7.07
2018-09-30T11:49:55.273Z,7.14
2018-09-30T11:50:55.454Z,7.06
2018-09-30T11:51:55.201Z,7.09
2018-09-30T11:52:55.209Z,7.15
2018-09-30T11:53:55.370Z,7.21
2018-09-30T11:54:55.228Z,7.15
2018-09-30T11:55:55.266Z,7.14
2018-09-30T11:56:55.351Z,7.21
2018-09-30T11:57:55.247Z,7.3
2018-09-30T11:58:55.214Z,7.31
2018-09-30T11:59:55.288Z,7.28
2018-09-30T12:00:55.185Z,7.2
2018-09-30T12:01:55.540Z,7.19
2018-09-30T12:02:55.200Z,7.21
2018-09-30T12:03:55.208Z,7.19
2018-09-30T12:04:55.238Z,7.15
2018-09-30T12:05:55.363Z,7.2
2018-09-30T12:06:55.681Z,7.21
2018-09-30T12:07:55.230Z,7.13
2018-09-30T12:08:55.176Z,7.02
2018-09-30T12:09:55.194Z,7.04
2018-09-30T12:10:55.200Z,7.11
2018-09-30T12:11:55.183Z,7.18
2018-09-30T12:12:55.350Z,7.23
2018-09-30T12:14:43.201Z,7.28
2018-09-30T12:15:43.312Z,7.25
2018-09-30T12:16:43.158Z,7.15
2018-09-30T12:17:43.194Z,7.08
2018-09-30T12:18:43.797Z,7.13
2018-09-30T12:19:43.375Z,7.23
2018-09-30T12:20:43.115Z,7.1
2018-09-30T12:21:43.242Z,7.1
2018-09-30T12:22:43.202Z,7.1
2018-09-30T12:23:43.240Z,7.1
2018-09-30T12:24:43.236Z,7.13
2018-09-30T12:25:43.387Z,7.16
2018-09-30T12:26:43.105Z,7.06
2018-09-30T12:27:43.249Z,7.06
2018-09-30T12:28:43.130Z,7.24
2018-09-30T12:29:43.135Z,7.2
2018-09-30T12:30:43.205Z,7.15
2018-09-30T12:31:43.152Z,7.09
2018-09-30T12:32:43.129Z,7.19
2018-09-30T12:33:43.216Z,7.18
2018-09-30T12:34:43.367Z,7.2
2018-09-30T12:35:43.168Z,7.23
2018-09-30T12:36:43.391Z,7.15
2018-09-30T12:37:43.160Z,7.15
2018-09-30T12:38:43.511Z,7.21
2018-09-30T12:39:43.219Z,7.27
2018-09-30T12:40:43.186Z,7.26
2018-09-30T12:41:43.079Z,7.28
2018-09-30T12:42:43.257Z,7.34
2018-09-30T12:43:43.223Z,7.28
2018-09-30T12:44:43.340Z,7.25
2018-09-30T12:45:43.156Z,7.34
2018-09-30T12:46:43.209Z,7.28
2018-09-30T12:47:43.224Z,7.32
2018-09-30T12:48:43.151Z,7.37
2018-09-30T12:49:43.159Z,7.39
2018-09-30T12:50:43.233Z,7.33
2018-09-30T12:51:43.058Z,7.32
2018-09-30T12:52:43.219Z,7.29
2018-09-30T12:53:43.231Z,7.29
2018-09-30T12:54:43.082Z,7.31
2018-09-30T12:55:43.157Z,7.31
2018-09-30T12:56:43.093Z,7.28
2018-09-30T12:57:43.151Z,7.28
2018-09-30T12:58:43.171Z,7.24
2018-09-30T12:59:43.148Z,7.31
2018-09-30T13:00:43.189Z,7.36
2018-09-30T13:01:43.217Z,7.35
2018-09-30T13:02:43.171Z,7.3
2018-09-30T13:03:43.594Z,7.33
2018-09-30T13:04:43.390Z,7.27
2018-09-30T13:05:43.955Z,7.34
2018-09-30T13:06:43.259Z,7.31
2018-09-30T13:07:43.193Z,7.42
2018-09-30T13:08:43.316Z,7.35
2018-09-30T13:09:43.321Z,7.27
2018-09-30T13:10:43.076Z,7.34
2018-09-30T13:11:43.118Z,7.34
2018-09-30T13:12:43.308Z,7.46
2018-09-30T13:13:43.209Z,7.39
2018-09-30T13:14:43.442Z,7.37
2018-09-30T13:15:43.107Z,7.35
2018-09-30T13:16:43.645Z,7.42
2018-09-30T13:17:43.031Z,7.45
2018-09-30T13:18:43.244Z,7.47
2018-09-30T13:19:43.038Z,7.46
2018-09-30T13:20:43.938Z,7.38
2018-09-30T13:21:43.378Z,7.45
2018-09-30T13:22:43.269Z,7.43
2018-09-30T13:23:43.174Z,7.44
2018-09-30T13:24:43.196Z,7.45